Time;durP1;ratioP1;P1;durP2;ratioP2;P2;SDS_P1;SDS_P2;PMS_P1;PMS_P2;Temp;Humidity;BMP_temperature;BMP_pressure;BME280_temperature;BME280_humidity;BME280_pressure;Samples;Min_cycle;Max_cycle;Signal;HPM_P1;HPM_P2
2023/12/14 00:01:56;;;;;;;9.35;2.25;;;;;;;4.81;100.00;100285.03;5008855;28;20050;-69
2023/12/14 00:04:23;;;;;;;9.93;2.00;;;;;;;4.79;100.00;100275.59;5008560;28;20058;-68
2023/12/14 00:06:50;;;;;;;10.32;2.42;;;;;;;4.72;100.00;100273.09;5009954;28;20077;-68
2023/12/14 00:09:17;;;;;;;6.78;2.50;;;;;;;4.77;100.00;100277.38;5010559;28;20050;-69
2023/12/14 00:11:43;;;;;;;7.18;2.17;;;;;;;4.77;100.00;100285.16;5008613;28;20470;-69
2023/12/14 00:14:10;;;;;;;8.75;1.70;;;;;;;4.78;100.00;100289.44;5010353;28;20144;-68
2023/12/14 00:16:37;;;;;;;6.43;1.70;;;;;;;4.80;100.00;100282.47;5007683;28;20337;-68
2023/12/14 00:19:03;;;;;;;6.40;1.98;;;;;;;4.67;100.00;100277.53;5006309;28;20057;-68
2023/12/14 00:21:30;;;;;;;5.28;1.52;;;;;;;4.79;100.00;100281.63;5019203;28;20052;-68
2023/12/14 00:23:57;;;;;;;11.85;2.38;;;;;;;4.86;100.00;100279.75;5009740;28;20060;-69
2023/12/14 00:26:23;;;;;;;6.50;1.92;;;;;;;4.93;100.00;100269.19;4991310;28;20038;-69
2023/12/14 00:28:50;;;;;;;8.38;1.65;;;;;;;4.96;100.00;100270.88;5001392;28;20566;-69
2023/12/14 00:31:23;;;;;;;5.15;1.48;;;;;;;4.93;100.00;100256.22;4992597;28;20058;-69
2023/12/14 00:33:50;;;;;;;5.32;1.80;;;;;;;4.84;100.00;100263.38;5003088;28;20506;-69
2023/12/14 00:36:20;;;;;;;4.75;1.70;;;;;;;4.99;100.00;100272.56;5009620;28;20447;-68
2023/12/14 00:38:46;;;;;;;9.30;1.83;;;;;;;4.92;100.00;100266.63;5006899;28;20063;-69
2023/12/14 00:41:13;;;;;;;9.88;2.00;;;;;;;4.81;100.00;100253.06;5014515;28;20054;-68
2023/12/14 00:43:40;;;;;;;6.60;1.92;;;;;;;4.78;100.00;100266.97;4993957;28;20161;-68
2023/12/14 00:46:07;;;;;;;6.95;1.80;;;;;;;4.80;100.00;100262.59;5009747;28;20069;-68
2023/12/14 00:48:34;;;;;;;5.85;1.65;;;;;;;4.86;100.00;100248.63;5009371;28;20053;-68
2023/12/14 00:51:01;;;;;;;6.20;1.60;;;;;;;4.80;100.00;100217.63;5002714;28;20050;-68
2023/12/14 00:53:27;;;;;;;5.47;1.67;;;;;;;4.81;100.00;100248.72;5009046;28;20049;-68
2023/12/14 00:55:54;;;;;;;7.95;2.45;;;;;;;4.67;100.00;100241.22;5009409;28;20080;-69
2023/12/14 00:58:21;;;;;;;8.48;2.42;;;;;;;5.01;100.00;100253.47;5009768;28;20403;-69
2023/12/14 01:00:47;;;;;;;8.35;2.45;;;;;;;4.95;100.00;100235.44;5001125;28;20054;-69
2023/12/14 01:03:14;;;;;;;10.68;2.55;;;;;;;5.04;100.00;100239.56;5009381;28;20519;-68
2023/12/14 01:05:41;;;;;;;13.85;2.40;;;;;;;4.88;100.00;100246.84;5009386;28;20480;-69
2023/12/14 01:08:08;;;;;;;13.75;2.60;;;;;;;4.90;100.00;100230.34;5009866;28;20053;-69
2023/12/14 01:10:35;;;;;;;13.32;2.60;;;;;;;4.89;100.00;100236.44;5003658;28;20555;-69
2023/12/14 01:13:02;;;;;;;10.45;2.10;;;;;;;4.94;100.00;100213.84;5006134;28;20108;-69
2023/12/14 01:15:28;;;;;;;9.35;2.78;;;;;;;4.80;100.00;100223.69;5009210;28;20054;-69
2023/12/14 01:17:55;;;;;;;8.63;2.20;;;;;;;4.75;100.00;100236.72;5006261;28;20046;-69
2023/12/14 01:20:23;;;;;;;11.30;2.88;;;;;;;4.83;100.00;100222.75;5003975;28;20049;-69
2023/12/14 01:22:50;;;;;;;7.80;2.13;;;;;;;5.01;100.00;100227.53;5009037;28;20077;-69
2023/12/14 01:25:16;;;;;;;10.68;2.28;;;;;;;4.71;100.00;100209.16;5007365;28;20050;-69
2023/12/14 01:27:43;;;;;;;8.60;2.13;;;;;;;4.83;100.00;100220.16;5008795;28;20081;-69
2023/12/14 01:30:10;;;;;;;10.05;2.25;;;;;;;4.81;100.00;100219.34;5007731;28;20160;-69
2023/12/14 01:32:37;;;;;;;6.78;1.98;;;;;;;4.85;100.00;100224.44;5009623;28;20518;-69
2023/12/14 01:35:05;;;;;;;7.35;2.47;;;;;;;4.86;100.00;100225.28;5008400;28;20046;-69
2023/12/14 01:37:31;;;;;;;8.73;2.20;;;;;;;4.82;100.00;100208.94;5009610;28;20077;-69
2023/12/14 01:39:58;;;;;;;9.68;2.03;;;;;;;4.80;100.00;100208.13;4990506;28;20108;-69
2023/12/14 01:42:26;;;;;;;10.77;2.20;;;;;;;4.74;100.00;100211.66;5007286;28;20041;-69
2023/12/14 01:44:52;;;;;;;10.55;2.22;;;;;;;4.81;100.00;100211.56;5008964;28;20088;-69
2023/12/14 01:47:19;;;;;;;10.02;3.22;;;;;;;4.73;100.00;100199.59;4990551;28;20050;-69
2023/12/14 01:49:45;;;;;;;6.97;2.10;;;;;;;4.79;100.00;100201.22;5007892;28;20058;-69
2023/12/14 01:52:12;;;;;;;8.82;2.53;;;;;;;4.93;100.00;100196.56;5008114;28;20309;-69
2023/12/14 01:54:39;;;;;;;10.43;2.10;;;;;;;4.82;100.00;100195.97;5008630;28;20068;-69
2023/12/14 01:57:05;;;;;;;6.65;1.80;;;;;;;4.71;100.00;100193.59;5007624;28;20388;-69
2023/12/14 01:59:32;;;;;;;8.18;2.13;;;;;;;4.77;100.00;100200.41;5007083;28;20056;-69
2023/12/14 02:01:59;;;;;;;8.23;2.22;;;;;;;4.84;100.00;100201.97;4995418;28;20058;-69
2023/12/14 02:04:26;;;;;;;6.80;1.88;;;;;;;4.62;100.00;100205.91;4998380;28;20050;-69
2023/12/14 02:06:53;;;;;;;6.60;1.88;;;;;;;4.95;100.00;100202.56;5012227;28;20090;-69
2023/12/14 02:09:19;;;;;;;7.05;2.40;;;;;;;4.90;100.00;100200.97;5011643;28;20042;-69
2023/12/14 02:11:46;;;;;;;8.27;1.90;;;;;;;4.95;100.00;100202.56;5004608;28;20088;-69
2023/12/14 02:14:13;;;;;;;8.80;2.25;;;;;;;4.92;100.00;100200.06;5012093;28;20499;-69
2023/12/14 02:16:39;;;;;;;8.15;2.40;;;;;;;5.07;100.00;100205.78;5008841;28;20046;-69
2023/12/14 02:19:06;;;;;;;7.22;2.22;;;;;;;4.82;100.00;100192.53;5004638;28;20046;-69
2023/12/14 02:21:33;;;;;;;10.15;2.35;;;;;;;4.91;100.00;100189.72;5005788;28;20085;-68
2023/12/14 02:24:00;;;;;;;7.10;2.13;;;;;;;5.01;100.00;100183.44;5010706;28;20093;-69
2023/12/14 02:26:26;;;;;;;5.72;1.65;;;;;;;5.14;100.00;100187.41;5010633;28;20038;-69
2023/12/14 02:28:53;;;;;;;7.97;2.30;;;;;;;5.01;100.00;100172.16;5011780;28;20071;-69
2023/12/14 02:31:20;;;;;;;10.80;2.47;;;;;;;4.88;100.00;100174.22;4982430;28;20050;-69
2023/12/14 02:33:47;;;;;;;11.02;2.45;;;;;;;4.86;100.00;100174.25;5011269;28;20050;-69
2023/12/14 02:36:14;;;;;;;6.97;2.35;;;;;;;4.83;100.00;100176.91;5011011;28;20053;-69
2023/12/14 02:38:40;;;;;;;6.32;1.83;;;;;;;4.99;100.00;100179.16;5012579;28;20049;-69
2023/12/14 02:41:07;;;;;;;7.43;2.00;;;;;;;5.06;100.00;100168.56;5011328;28;20471;-69
2023/12/14 02:43:34;;;;;;;10.00;2.95;;;;;;;4.86;100.00;100153.50;5011694;28;20046;-69
2023/12/14 02:46:02;;;;;;;11.95;1.80;;;;;;;5.08;100.00;100159.03;5011671;28;20121;-70
2023/12/14 02:48:29;;;;;;;8.88;2.50;;;;;;;5.17;100.00;100157.09;5011746;28;20480;-68
2023/12/14 02:50:56;;;;;;;7.63;2.10;;;;;;;5.02;100.00;100148.78;5010101;28;20056;-69
2023/12/14 02:53:23;;;;;;;8.48;2.25;;;;;;;4.77;100.00;100129.53;5012255;28;20406;-69
2023/12/14 02:55:50;;;;;;;8.18;2.28;;;;;;;4.85;100.00;100141.44;5011626;28;20506;-69
2023/12/14 02:58:18;;;;;;;10.05;2.83;;;;;;;5.00;100.00;100129.81;4998948;28;20100;-69
2023/12/14 03:00:45;;;;;;;7.78;2.08;;;;;;;4.91;100.00;100115.31;4999980;28;20055;-69
2023/12/14 03:03:12;;;;;;;14.00;2.83;;;;;;;4.89;100.00;100119.69;5011533;28;20121;-69
2023/12/14 03:05:38;;;;;;;11.45;2.25;;;;;;;4.83;100.00;100109.47;5012070;28;20505;-69
2023/12/14 03:08:05;;;;;;;9.70;2.63;;;;;;;4.79;100.00;100107.00;5011919;28;20041;-69
2023/12/14 03:10:32;;;;;;;8.75;2.63;;;;;;;4.89;100.00;100087.72;5004116;28;20479;-70
2023/12/14 03:12:58;;;;;;;9.10;1.90;;;;;;;4.89;100.00;100077.34;5011348;28;20533;-69
2023/12/14 03:15:25;;;;;;;11.13;2.35;;;;;;;4.79;100.00;100066.34;5010949;28;20048;-69
2023/12/14 03:17:52;;;;;;;8.65;2.50;;;;;;;4.89;100.00;100057.44;5009794;28;20145;-69
2023/12/14 03:20:18;;;;;;;13.18;2.75;;;;;;;4.86;100.00;100062.69;5000695;28;20549;-69
2023/12/14 03:22:45;;;;;;;7.85;2.72;;;;;;;4.91;100.00;100049.63;5007746;28;20147;-69
2023/12/14 03:25:13;;;;;;;14.40;3.65;;;;;;;4.64;100.00;100033.84;5010750;28;20085;-69
2023/12/14 03:27:39;;;;;;;7.65;2.17;;;;;;;4.81;100.00;100036.00;5000822;28;20054;-69
2023/12/14 03:30:09;;;;;;;12.63;2.45;;;;;;;4.89;100.00;100013.34;5006790;28;20090;-69
2023/12/14 03:32:37;;;;;;;13.55;2.80;;;;;;;4.86;100.00;100039.34;5011016;28;20491;-68
2023/12/14 03:35:05;;;;;;;14.63;3.28;;;;;;;4.85;100.00;100042.84;5009663;28;20108;-68
2023/12/14 03:37:31;;;;;;;12.80;2.88;;;;;;;5.04;100.00;100045.81;5010775;28;20403;-68
2023/12/14 03:39:58;;;;;;;8.45;2.10;;;;;;;5.04;100.00;100029.41;5008687;28;20053;-69
2023/12/14 03:42:25;;;;;;;11.55;2.63;;;;;;;5.09;100.00;100020.59;5010421;28;20081;-69
2023/12/14 03:44:52;;;;;;;13.15;3.55;;;;;;;5.06;100.00;100010.28;5011151;28;20415;-68
2023/12/14 03:47:18;;;;;;;12.00;2.30;;;;;;;4.99;100.00;100010.50;5010302;28;20049;-67
2023/12/14 03:49:45;;;;;;;8.70;2.30;;;;;;;5.03;100.00;100019.91;5008923;28;20053;-69
2023/12/14 03:52:12;;;;;;;13.35;2.65;;;;;;;5.04;100.00;100019.88;5003950;28;20499;-69
2023/12/14 03:54:38;;;;;;;9.18;2.70;;;;;;;5.08;100.00;100005.06;5010132;28;20053;-69
2023/12/14 03:57:05;;;;;;;7.78;2.25;;;;;;;5.19;100.00;100012.56;5010910;28;20062;-69
2023/12/14 03:59:32;;;;;;;11.60;2.38;;;;;;;5.13;100.00;100003.19;5009145;28;20049;-69
2023/12/14 04:01:59;;;;;;;11.00;2.22;;;;;;;5.27;100.00;100015.81;5009582;28;20861;-69
2023/12/14 04:04:26;;;;;;;13.23;3.70;;;;;;;5.18;100.00;100011.72;5007095;28;20060;-69
2023/12/14 04:06:52;;;;;;;12.20;2.72;;;;;;;5.12;100.00;99998.91;5010021;28;20050;-69
2023/12/14 04:09:19;;;;;;;13.75;2.92;;;;;;;5.34;100.00;99999.16;5010419;28;20050;-69
2023/12/14 04:11:46;;;;;;;13.85;2.90;;;;;;;5.23;100.00;99991.69;5002565;28;20061;-69
2023/12/14 04:14:13;;;;;;;9.20;2.20;;;;;;;5.20;100.00;99991.75;5009956;28;20100;-69
2023/12/14 04:16:39;;;;;;;10.85;2.50;;;;;;;5.25;100.00;99991.66;5010495;28;20052;-69
2023/12/14 04:19:09;;;;;;;9.80;2.17;;;;;;;5.35;100.00;99989.63;5009399;28;20053;-69
2023/12/14 04:21:37;;;;;;;8.57;2.63;;;;;;;5.32;100.00;99987.97;5006934;28;20060;-69
2023/12/14 04:24:04;;;;;;;10.95;2.50;;;;;;;5.33;100.00;99998.31;5001773;28;20513;-69
2023/12/14 04:26:31;;;;;;;9.63;2.70;;;;;;;5.34;100.00;99975.81;5009217;28;20037;-70
2023/12/14 04:28:57;;;;;;;11.25;3.13;;;;;;;5.53;100.00;99983.94;5009951;28;20061;-69
2023/12/14 04:31:24;;;;;;;15.98;3.28;;;;;;;5.68;100.00;99983.50;4997885;28;20046;-69
2023/12/14 04:33:51;;;;;;;13.85;2.80;;;;;;;5.50;100.00;99994.41;5009092;28;20052;-69
2023/12/14 04:36:17;;;;;;;13.88;3.42;;;;;;;5.56;100.00;99985.56;5009744;28;20077;-68
2023/12/14 04:38:46;;;;;;;9.13;2.63;;;;;;;5.61;100.00;99996.69;5010670;28;20081;-68
2023/12/14 04:41:13;;;;;;;11.50;2.58;;;;;;;5.62;100.00;99991.44;5005654;28;20053;-68
2023/12/14 04:43:40;;;;;;;10.10;2.70;;;;;;;5.55;100.00;99992.53;5009131;28;20054;-68
2023/12/14 04:46:07;;;;;;;15.52;2.67;;;;;;;5.50;100.00;100003.03;5009368;28;20050;-69
2023/12/14 04:48:33;;;;;;;9.57;2.63;;;;;;;5.64;100.00;99994.00;5009670;28;20467;-68
2023/12/14 04:51:00;;;;;;;14.15;3.05;;;;;;;5.63;100.00;99990.56;5009083;28;20081;-70
2023/12/14 04:53:27;;;;;;;9.30;2.80;;;;;;;5.67;100.00;100007.75;5009297;28;20050;-69
2023/12/14 04:55:53;;;;;;;8.95;2.22;;;;;;;5.84;100.00;100011.59;5009508;28;20046;-68
2023/12/14 04:58:20;;;;;;;11.38;2.55;;;;;;;5.73;100.00;100018.88;5010067;28;20080;-69
2023/12/14 05:00:47;;;;;;;8.75;2.55;;;;;;;5.88;100.00;100019.25;4991993;28;20054;-70
2023/12/14 05:03:14;;;;;;;6.72;1.95;;;;;;;5.99;100.00;100005.13;5009581;28;20503;-70
2023/12/14 05:05:41;;;;;;;12.75;3.17;;;;;;;5.76;100.00;100005.78;5006707;28;20061;-69
2023/12/14 05:08:07;;;;;;;11.35;2.60;;;;;;;5.63;100.00;100010.47;5008411;28;20686;-70
2023/12/14 05:10:34;;;;;;;6.65;2.00;;;;;;;5.72;100.00;100020.63;5007441;28;20427;-69
2023/12/14 05:13:02;;;;;;;7.55;1.88;;;;;;;5.91;100.00;100036.50;5007802;28;20052;-70
2023/12/14 05:15:30;;;;;;;10.52;2.45;;;;;;;5.68;100.00;100029.38;5006937;28;20050;-70
2023/12/14 05:17:57;;;;;;;9.70;2.60;;;;;;;5.66;100.00;100025.97;5009013;28;20061;-69
2023/12/14 05:20:24;;;;;;;8.30;2.25;;;;;;;5.69;100.00;100033.69;5007813;28;20140;-69
2023/12/14 05:22:51;;;;;;;8.60;2.92;;;;;;;5.85;100.00;100039.28;5007709;28;20050;-69
2023/12/14 05:25:18;;;;;;;8.48;2.60;;;;;;;5.73;100.00;100032.69;5008942;28;20140;-69
2023/12/14 05:27:45;;;;;;;7.18;2.63;;;;;;;5.51;100.00;100035.06;4988668;28;20054;-70
2023/12/14 05:30:12;;;;;;;10.43;2.17;;;;;;;5.51;100.00;100027.28;5002753;28;20133;-69
2023/12/14 05:32:38;;;;;;;6.72;2.00;;;;;;;5.66;100.00;100037.19;5002834;28;20430;-70
2023/12/14 05:35:06;;;;;;;11.38;2.88;;;;;;;5.36;100.00;100033.72;5009427;28;20050;-70
2023/12/14 05:37:33;;;;;;;8.20;2.25;;;;;;;5.47;100.00;100029.09;5009808;28;20436;-69
2023/12/14 05:40:00;;;;;;;14.40;2.25;;;;;;;5.53;100.00;100045.41;5007721;28;20046;-69
2023/12/14 05:42:26;;;;;;;10.15;2.50;;;;;;;5.55;100.00;100047.06;5012131;28;20042;-69
2023/12/14 05:44:53;;;;;;;9.45;2.30;;;;;;;5.40;100.00;100043.16;5013448;28;20510;-69
2023/12/14 05:47:20;;;;;;;8.85;2.85;;;;;;;5.38;100.00;100039.72;5012865;28;20057;-69
2023/12/14 05:49:47;;;;;;;9.55;2.80;;;;;;;5.40;100.00;100055.25;5011077;28;20921;-68
2023/12/14 05:52:13;;;;;;;9.80;3.92;;;;;;;5.41;100.00;100036.19;5012608;28;20049;-70
2023/12/14 05:54:40;;;;;;;9.75;2.83;;;;;;;5.57;100.00;100065.19;5011071;28;20058;-69
2023/12/14 05:57:07;;;;;;;8.93;2.30;;;;;;;5.46;100.00;100062.91;5012532;28;20049;-69
2023/12/14 05:59:34;;;;;;;7.47;2.45;;;;;;;5.45;100.00;100071.56;5009642;28;20492;-69
2023/12/14 06:02:01;;;;;;;6.32;1.60;;;;;;;5.59;100.00;100076.38;5010416;28;20426;-69
2023/12/14 06:04:28;;;;;;;10.85;2.20;;;;;;;5.45;100.00;100063.78;5011397;28;20104;-69
2023/12/14 06:06:55;;;;;;;6.70;1.98;;;;;;;5.49;100.00;100070.59;5012771;28;20050;-69
2023/12/14 06:09:25;;;;;;;10.15;2.03;;;;;;;5.51;100.00;100068.81;5012310;28;20120;-69
2023/12/14 06:11:52;;;;;;;7.47;2.20;;;;;;;5.42;100.00;100066.44;4993091;28;20054;-69
2023/12/14 06:14:19;;;;;;;6.40;2.15;;;;;;;5.20;100.00;100035.88;5012246;28;20501;-69
2023/12/14 06:16:45;;;;;;;5.38;2.38;;;;;;;5.35;100.00;100070.09;5011911;28;20060;-69
2023/12/14 06:19:12;;;;;;;7.75;2.20;;;;;;;5.26;100.00;100055.66;4993918;28;20054;-69
2023/12/14 06:21:40;;;;;;;8.68;2.38;;;;;;;5.12;100.00;100062.03;5011478;28;20144;-69
2023/12/14 06:24:07;;;;;;;8.07;2.20;;;;;;;5.09;100.00;100058.69;5011471;28;20458;-69
2023/12/14 06:26:34;;;;;;;7.90;2.67;;;;;;;5.18;100.00;100070.56;5012446;28;20562;-69
2023/12/14 06:29:00;;;;;;;7.00;2.40;;;;;;;5.08;100.00;100072.53;5008902;28;20388;-69
2023/12/14 06:31:27;;;;;;;6.60;2.47;;;;;;;5.24;100.00;100075.56;5010777;28;20052;-69
2023/12/14 06:33:54;;;;;;;6.82;2.60;;;;;;;5.16;100.00;100068.00;5009763;28;20506;-69
2023/12/14 06:36:29;;;;;;;7.90;2.10;;;;;;;5.23;100.00;100068.72;5012102;28;20057;-69
2023/12/14 06:38:58;;;;;;;8.48;2.13;;;;;;;5.09;100.00;100074.25;5010422;28;20054;-69
2023/12/14 06:41:26;;;;;;;6.88;2.35;;;;;;;5.16;100.00;100072.34;5006941;28;20049;-69
2023/12/14 06:43:52;;;;;;;8.02;2.22;;;;;;;5.15;100.00;100063.69;5009939;28;20730;-70
2023/12/14 06:46:19;;;;;;;5.15;2.00;;;;;;;5.06;100.00;100069.97;5009324;28;20042;-70
2023/12/14 06:48:47;;;;;;;11.75;3.30;;;;;;;5.14;100.00;100085.38;5012005;28;20053;-70
2023/12/14 06:51:14;;;;;;;4.60;1.85;;;;;;;5.12;100.00;100079.38;5009158;28;20073;-70
2023/12/14 06:53:42;;;;;;;8.70;2.42;;;;;;;5.19;100.00;100082.63;5011002;28;20052;-70
2023/12/14 06:56:10;;;;;;;6.35;2.30;;;;;;;5.13;100.00;100076.72;4999612;28;20053;-70
2023/12/14 06:58:40;;;;;;;7.57;1.95;;;;;;;5.16;100.00;100073.19;4977659;28;20050;-70
2023/12/14 07:01:07;;;;;;;6.15;1.95;;;;;;;5.11;100.00;100070.69;4998147;28;20133;-70
2023/12/14 07:03:34;;;;;;;5.50;1.80;;;;;;;5.10;100.00;100083.75;5000576;28;20141;-70
2023/12/14 07:06:01;;;;;;;9.57;1.88;;;;;;;5.08;100.00;100077.72;5009450;28;20554;-70
2023/12/14 07:08:28;;;;;;;4.05;1.70;;;;;;;5.12;100.00;100088.00;5008779;28;20471;-70
2023/12/14 07:10:55;;;;;;;4.22;1.67;;;;;;;5.05;100.00;100080.41;5006709;28;20054;-70
2023/12/14 07:13:21;;;;;;;6.00;2.20;;;;;;;5.01;100.00;100089.16;5006680;28;20046;-70
2023/12/14 07:15:48;;;;;;;4.35;1.88;;;;;;;4.93;100.00;100076.38;5001694;28;20050;-70
2023/12/14 07:18:15;;;;;;;3.80;1.67;;;;;;;4.95;100.00;100078.03;5003138;28;20463;-69
2023/12/14 07:20:41;;;;;;;8.90;2.00;;;;;;;5.00;100.00;100095.25;5001427;28;20054;-69
2023/12/14 07:23:08;;;;;;;5.35;1.83;;;;;;;5.07;100.00;100104.56;5007009;28;20476;-69
2023/12/14 07:25:35;;;;;;;8.18;2.20;;;;;;;5.02;100.00;100109.88;5000816;28;20046;-69
2023/12/14 07:28:02;;;;;;;5.82;1.98;;;;;;;4.90;100.00;100102.38;5003148;28;20052;-70
2023/12/14 07:30:29;;;;;;;5.85;2.03;;;;;;;4.94;100.00;100104.88;5000464;28;20046;-69
2023/12/14 07:32:55;;;;;;;4.25;1.63;;;;;;;4.88;100.00;100109.34;5005598;28;20069;-69
2023/12/14 07:35:23;;;;;;;5.47;2.08;;;;;;;4.94;100.00;100125.63;5007585;28;20479;-69
2023/12/14 07:37:50;;;;;;;9.85;2.72;;;;;;;4.99;100.00;100122.06;5007950;28;20467;-69
2023/12/14 07:40:16;;;;;;;5.30;1.85;;;;;;;4.98;100.00;100122.97;5007916;28;20488;-69
2023/12/14 07:42:43;;;;;;;7.38;2.40;;;;;;;4.91;100.00;100112.72;5005496;28;20053;-69
2023/12/14 07:45:10;;;;;;;5.30;2.30;;;;;;;4.99;100.00;100129.84;4998409;28;20081;-69
2023/12/14 07:47:37;;;;;;;4.90;1.73;;;;;;;4.93;100.00;100121.31;5006666;28;20042;-69
2023/12/14 07:50:04;;;;;;;4.78;1.80;;;;;;;4.73;100.00;100106.25;4991964;28;20181;-68
2023/12/14 07:52:31;;;;;;;3.92;1.60;;;;;;;4.77;100.00;100106.19;4996487;28;20146;-69
2023/12/14 07:54:58;;;;;;;6.03;2.00;;;;;;;4.86;100.00;100132.72;5007436;28;20463;-69
2023/12/14 07:57:24;;;;;;;3.70;1.60;;;;;;;4.87;100.00;100152.63;5009373;28;20048;-69
2023/12/14 07:59:51;;;;;;;7.68;4.47;;;;;;;4.90;100.00;100162.91;5007255;28;20164;-69
2023/12/14 08:02:18;;;;;;;4.20;2.20;;;;;;;4.85;100.00;100157.00;5005484;28;20460;-72
2023/12/14 08:04:44;;;;;;;3.85;1.80;;;;;;;4.87;100.00;100175.09;5003515;28;20053;-73
2023/12/14 08:07:11;;;;;;;3.95;1.95;;;;;;;4.86;100.00;100183.78;4991242;28;20107;-72
2023/12/14 08:09:38;;;;;;;6.95;3.30;;;;;;;4.73;100.00;100167.66;5007303;28;20503;-73
2023/12/14 08:12:05;;;;;;;5.20;2.00;;;;;;;4.76;100.00;100188.31;5004562;28;20569;-72
2023/12/14 08:14:36;;;;;;;4.30;1.70;;;;;;;4.73;100.00;100178.00;5008418;28;20065;-72
2023/12/14 08:17:04;;;;;;;6.23;2.50;;;;;;;4.55;100.00;100190.50;5010251;28;20052;-72
2023/12/14 08:19:32;;;;;;;4.60;1.80;;;;;;;4.59;100.00;100199.06;5016761;28;20057;-72
2023/12/14 08:21:58;;;;;;;4.93;2.00;;;;;;;4.57;100.00;100203.44;4994718;28;20046;-72
2023/12/14 08:24:25;;;;;;;5.80;2.15;;;;;;;4.47;100.00;100199.31;5001619;28;20148;-72
2023/12/14 08:26:52;;;;;;;5.53;2.05;;;;;;;4.39;100.00;100202.06;5001265;28;20058;-72
2023/12/14 08:29:18;;;;;;;8.02;2.30;;;;;;;4.25;100.00;100196.31;4995213;28;20050;-72
2023/12/14 08:31:45;;;;;;;5.20;2.17;;;;;;;4.35;100.00;100213.38;5005075;28;20054;-72
2023/12/14 08:34:12;;;;;;;8.45;2.63;;;;;;;4.42;100.00;100221.88;5006905;28;20173;-72
2023/12/14 08:36:38;;;;;;;5.45;2.15;;;;;;;4.46;100.00;100228.72;5003595;28;20070;-72
2023/12/14 08:39:05;;;;;;;6.03;2.10;;;;;;;4.44;100.00;100243.44;5007788;28;20050;-72
2023/12/14 08:41:32;;;;;;;6.28;2.40;;;;;;;4.49;100.00;100239.03;5007114;28;20061;-72
2023/12/14 08:43:59;;;;;;;8.68;2.90;;;;;;;4.48;100.00;100239.91;5003267;28;20046;-72
2023/12/14 08:46:26;;;;;;;7.05;2.40;;;;;;;4.38;100.00;100231.47;5000708;28;20054;-72
2023/12/14 08:48:52;;;;;;;7.70;2.53;;;;;;;4.29;100.00;100236.84;5000944;28;20069;-72
2023/12/14 08:51:20;;;;;;;7.22;2.80;;;;;;;4.27;100.00;100231.69;5003042;28;20709;-72
2023/12/14 08:53:47;;;;;;;6.50;2.42;;;;;;;4.34;100.00;100235.84;4995917;28;20499;-71
2023/12/14 08:56:14;;;;;;;4.57;2.00;;;;;;;4.38;100.00;100241.84;4994382;28;20674;-72
2023/12/14 08:58:41;;;;;;;7.60;2.00;;;;;;;4.30;100.00;100231.63;4992255;28;20108;-72
2023/12/14 09:01:08;;;;;;;6.53;2.20;;;;;;;4.34;100.00;100246.22;4979756;28;20129;-72
2023/12/14 09:03:34;;;;;;;7.70;2.30;;;;;;;4.29;100.00;100250.66;5009583;28;20050;-72
2023/12/14 09:06:05;;;;;;;5.95;2.00;;;;;;;4.30;100.00;100264.44;5005360;28;20065;-72
2023/12/14 09:08:32;;;;;;;6.65;2.05;;;;;;;4.37;100.00;100273.81;4996101;28;20105;-72
2023/12/14 09:10:58;;;;;;;4.32;1.80;;;;;;;4.16;100.00;100260.41;5007070;28;20057;-72
2023/12/14 09:13:25;;;;;;;5.45;1.80;;;;;;;4.19;100.00;100275.03;5009700;28;20438;-71
2023/12/14 09:15:53;;;;;;;5.65;1.95;;;;;;;4.25;100.00;100289.59;5010170;28;20054;-72
2023/12/14 09:18:22;;;;;;;5.95;2.22;;;;;;;4.24;100.00;100290.50;5007406;28;20042;-72
2023/12/14 09:20:50;;;;;;;8.18;2.47;;;;;;;4.17;100.00;100289.75;5002935;28;20085;-72
2023/12/14 09:23:17;;;;;;;4.40;1.88;;;;;;;4.12;100.00;100294.16;5010483;28;20168;-72
2023/12/14 09:25:43;;;;;;;5.88;2.10;;;;;;;4.08;100.00;100298.53;5010478;28;20057;-71
2023/12/14 09:28:10;;;;;;;4.97;1.90;;;;;;;4.05;100.00;100298.59;5008289;28;20081;-71
2023/12/14 09:30:37;;;;;;;5.43;1.98;;;;;;;4.05;100.00;100308.94;5009575;28;20050;-72
2023/12/14 09:33:04;;;;;;;7.80;1.92;;;;;;;3.99;100.00;100317.69;5008643;28;20088;-71
2023/12/14 09:35:31;;;;;;;5.13;1.88;;;;;;;4.05;100.00;100318.47;5008850;28;20137;-71
2023/12/14 09:37:58;;;;;;;5.72;2.50;;;;;;;3.99;100.00;100301.31;5010190;28;20046;-72
2023/12/14 09:40:24;;;;;;;5.28;2.20;;;;;;;4.06;100.00;100315.84;5008676;28;20042;-71
2023/12/14 09:42:52;;;;;;;8.65;2.53;;;;;;;4.09;100.00;100308.03;5007117;28;20050;-71
2023/12/14 09:45:23;;;;;;;7.72;2.20;;;;;;;4.15;100.00;100318.28;5004891;28;20053;-72
2023/12/14 09:47:52;;;;;;;6.95;2.40;;;;;;;4.23;100.00;100319.88;5007479;28;20050;-71
2023/12/14 09:50:21;;;;;;;8.38;2.75;;;;;;;4.30;100.00;100335.31;5004072;28;20053;-72
2023/12/14 09:52:49;;;;;;;4.93;1.80;;;;;;;4.35;100.00;100327.44;5010199;28;20058;-72
2023/12/14 09:55:16;;;;;;;6.20;2.10;;;;;;;4.39;100.00;100331.66;5003021;28;20049;-71
2023/12/14 09:57:42;;;;;;;7.85;2.28;;;;;;;4.45;100.00;100320.34;5005456;28;20057;-72
2023/12/14 10:00:13;;;;;;;7.13;2.65;;;;;;;4.47;100.00;100334.97;4986225;28;20055;-72
2023/12/14 10:02:41;;;;;;;4.88;1.75;;;;;;;4.67;100.00;100344.09;5006994;28;20089;-72
2023/12/14 10:05:11;;;;;;;9.05;1.80;;;;;;;4.73;100.00;100349.19;5010295;28;20476;-72
2023/12/14 10:07:43;;;;;;;10.93;2.28;;;;;;;4.78;100.00;100336.13;5009988;28;20057;-72
2023/12/14 10:10:13;;;;;;;5.47;2.00;;;;;;;4.77;100.00;100342.22;5003167;28;20054;-72
2023/12/14 10:12:55;;;;;;;5.13;2.03;;;;;;;4.88;100.00;100338.47;5009191;28;20144;-72
2023/12/14 10:15:24;;;;;;;14.98;2.67;;;;;;;4.91;100.00;100338.44;4992375;28;20432;-72
2023/12/14 10:17:54;;;;;;;7.72;2.45;;;;;;;4.89;100.00;100329.84;5010083;28;20037;-72
2023/12/14 10:20:22;;;;;;;6.47;2.20;;;;;;;4.92;100.00;100342.75;4988641;28;20128;-72
2023/12/14 10:22:53;;;;;;;7.32;2.20;;;;;;;5.06;100.00;100342.44;5009561;28;20479;-72
2023/12/14 10:25:20;;;;;;;9.80;2.20;;;;;;;4.99;100.00;100335.66;5012424;28;20077;-72
2023/12/14 10:27:48;;;;;;;9.70;2.67;;;;;;;5.14;100.00;100339.69;5011674;28;20057;-72
2023/12/14 10:30:15;;;;;;;8.18;2.63;;;;;;;5.19;100.00;100344.78;5010851;28;20045;-72
2023/12/14 10:32:42;;;;;;;17.88;3.03;;;;;;;5.31;100.00;100345.38;5013141;28;20428;-72
2023/12/14 10:35:08;;;;;;;6.63;2.38;;;;;;;5.30;100.00;100348.84;5013078;28;20046;-72
2023/12/14 10:37:38;;;;;;;6.22;1.92;;;;;;;5.50;100.00;100358.78;5012789;28;20443;-72
2023/12/14 10:40:13;;;;;;;6.95;2.10;;;;;;;5.54;100.00;100362.16;5007682;28;20137;-72
2023/12/14 10:42:43;;;;;;;6.45;1.90;;;;;;;5.63;100.00;100368.88;5013342;28;20050;-72
2023/12/14 10:45:12;;;;;;;12.48;3.15;;;;;;;5.62;100.00;100362.84;4995097;28;20045;-71
2023/12/14 10:47:48;;;;;;;7.32;2.03;;;;;;;5.67;100.00;100373.16;5012770;28;20069;-71
2023/12/14 10:50:15;;;;;;;6.38;1.65;;;;;;;5.65;100.00;100374.94;5005428;28;20057;-72
2023/12/14 10:52:42;;;;;;;6.00;1.95;;;;;;;5.80;100.00;100386.69;5003026;28;20057;-72
2023/12/14 10:55:17;;;;;;;13.50;2.38;;;;;;;5.89;100.00;100395.09;5013323;28;20058;-72
2023/12/14 10:57:45;;;;;;;10.25;2.40;;;;;;;5.86;100.00;100404.72;5013034;28;20050;-71
2023/12/14 11:00:17;;;;;;;6.13;1.95;;;;;;;5.94;100.00;100394.16;5012137;28;20124;-71
2023/12/14 11:02:46;;;;;;;6.80;2.03;;;;;;;6.01;100.00;100398.34;5012508;28;20049;-73
2023/12/14 11:05:16;;;;;;;15.45;2.70;;;;;;;5.96;100.00;100405.41;5012666;28;20415;-73
2023/12/14 11:07:47;;;;;;;9.30;2.10;;;;;;;6.10;100.00;100405.94;5010050;28;20078;-72
2023/12/14 11:10:14;;;;;;;9.23;2.72;;;;;;;6.00;100.00;100407.03;5006053;28;20050;-72
2023/12/14 11:12:55;;;;;;;17.13;2.75;;;;;;;6.16;100.00;100416.19;5011496;28;20049;-72
2023/12/14 11:15:22;;;;;;;10.45;2.67;;;;;;;6.22;100.00;100422.97;5011254;28;20154;-72
2023/12/14 11:18:08;;;;;;;9.30;3.47;;;;;;;6.21;100.00;100422.09;5012287;28;20054;-72
2023/12/14 11:20:44;;;;;;;11.20;3.65;;;;;;;6.21;100.00;100421.25;5002791;28;20082;-72
2023/12/14 11:23:30;;;;;;;11.20;3.15;;;;;;;6.26;100.00;100422.84;5009839;28;20473;-72
2023/12/14 11:26:09;;;;;;;10.35;3.33;;;;;;;6.28;100.00;100420.22;4987218;28;20488;-72